Time;durP1;ratioP1;P1;durP2;ratioP2;P2;SDS_P1;SDS_P2;PMS_P1;PMS_P2;Temp;Humidity;BMP_temperature;BMP_pressure;BME280_temperature;BME280_humidity;BME280_pressure;Samples;Min_cycle;Max_cycle;Signal;HPM_P1;HPM_P2
2022/01/15 00:00:06;;;;;;;105.90;32.10;;;;;;;1.58;100.00;103050.34;5029932;28;20128;-75
2022/01/15 00:02:37;;;;;;;113.63;32.65;;;;;;;1.53;100.00;103055.59;5048476;28;20221;-76
2022/01/15 00:05:03;;;;;;;111.75;31.70;;;;;;;1.44;100.00;103052.44;5045594;28;20523;-76
2022/01/15 00:07:28;;;;;;;115.15;33.67;;;;;;;1.38;100.00;103053.44;5047157;28;20079;-75
2022/01/15 00:09:54;;;;;;;127.85;35.90;;;;;;;1.40;100.00;103055.97;5046093;28;20040;-76
2022/01/15 00:12:19;;;;;;;122.57;35.83;;;;;;;1.47;100.00;103053.22;5014695;28;20065;-75
2022/01/15 00:14:45;;;;;;;132.65;39.67;;;;;;;1.48;100.00;103057.41;5033230;28;20037;-75
2022/01/15 00:17:32;;;;;;;121.82;37.38;;;;;;;1.47;100.00;103054.91;5044894;28;20013;-76
2022/01/15 00:20:05;;;;;;;120.43;36.03;;;;;;;1.30;100.00;103048.53;5058575;28;20039;-76
2022/01/15 00:22:30;;;;;;;140.82;37.33;;;;;;;1.37;100.00;103046.66;5035459;28;20105;-75
2022/01/15 00:24:56;;;;;;;133.82;36.95;;;;;;;1.31;100.00;103042.53;5047426;28;20482;-76
2022/01/15 00:27:21;;;;;;;133.75;35.30;;;;;;;1.38;100.00;103047.50;5033651;28;20060;-76
2022/01/15 00:29:47;;;;;;;110.57;33.30;;;;;;;1.41;100.00;103038.00;5049339;28;20033;-75
2022/01/15 00:32:12;;;;;;;112.57;31.60;;;;;;;1.45;100.00;103037.06;5032687;28;20040;-76
2022/01/15 00:34:38;;;;;;;94.57;29.30;;;;;;;1.35;100.00;103046.69;5034750;28;20048;-76
2022/01/15 00:37:03;;;;;;;102.95;30.08;;;;;;;1.51;100.00;103047.13;5035708;28;20029;-76
2022/01/15 00:39:29;;;;;;;97.50;28.40;;;;;;;1.48;100.00;103054.03;5034254;28;20041;-76
2022/01/15 00:41:54;;;;;;;86.57;25.70;;;;;;;1.42;100.00;103044.81;5047339;28;20111;-76
2022/01/15 00:44:20;;;;;;;99.40;27.90;;;;;;;1.44;100.00;103047.34;5046395;28;20037;-76
2022/01/15 00:46:46;;;;;;;96.00;28.95;;;;;;;1.33;100.00;103039.94;5046479;28;20041;-76
2022/01/15 00:49:11;;;;;;;88.30;26.40;;;;;;;1.31;100.00;103042.53;5047049;28;20033;-76
2022/01/15 00:51:37;;;;;;;84.57;25.45;;;;;;;1.41;100.00;103040.56;5030217;28;20672;-76
2022/01/15 00:54:03;;;;;;;95.47;27.85;;;;;;;1.43;100.00;103022.63;5051238;28;20037;-75
2022/01/15 00:56:28;;;;;;;91.95;27.92;;;;;;;1.42;100.00;103026.91;5031040;28;20167;-76
2022/01/15 00:58:55;;;;;;;102.75;27.75;;;;;;;1.36;100.00;103024.53;5030077;28;20045;-76
2022/01/15 01:01:21;;;;;;;95.72;27.65;;;;;;;1.34;100.00;103019.47;5049971;28;20360;-76
2022/01/15 01:03:48;;;;;;;95.68;28.38;;;;;;;1.25;100.00;103014.59;5029249;28;20037;-76
2022/01/15 01:06:13;;;;;;;125.25;30.35;;;;;;;1.27;100.00;103005.16;5040954;28;20037;-75
2022/01/15 01:08:39;;;;;;;113.32;29.95;;;;;;;1.21;100.00;103010.44;5032655;28;20040;-76
2022/01/15 01:11:11;;;;;;;102.30;27.98;;;;;;;1.27;100.00;103005.16;5049687;28;20037;-76
2022/01/15 01:24:17;;;;;;;106.32;26.88;;;;;;;1.33;100.00;103004.16;5032248;28;20225;-75
2022/01/15 01:29:38;;;;;;;97.00;24.52;;;;;;;1.29;100.00;102993.16;5049841;28;20524;-75
2022/01/15 01:32:10;;;;;;;70.75;19.75;;;;;;;1.13;100.00;102997.00;5047397;28;20033;-76
2022/01/15 01:34:39;;;;;;;67.80;19.73;;;;;;;1.17;100.00;102998.63;5044924;28;20081;-76
2022/01/15 01:37:25;;;;;;;66.18;19.98;;;;;;;1.09;100.00;102993.72;5045735;28;20029;-76
2022/01/15 01:39:56;;;;;;;68.05;20.00;;;;;;;1.17;100.00;102985.84;5047176;28;20486;-76
2022/01/15 01:45:08;;;;;;;88.88;23.45;;;;;;;1.14;100.00;102980.81;5034799;28;20453;-76
2022/01/15 01:47:40;;;;;;;115.57;25.58;;;;;;;1.17;100.00;102973.91;5027412;28;20454;-76
2022/01/15 01:50:27;;;;;;;89.93;25.30;;;;;;;1.11;100.00;102975.78;5059327;28;20029;-76
2022/01/15 01:52:56;;;;;;;108.18;25.67;;;;;;;1.06;100.00;102969.97;5045777;28;20479;-76
2022/01/15 01:55:23;;;;;;;96.28;25.42;;;;;;;1.15;100.00;102974.84;5044461;28;20037;-76
2022/01/15 01:57:50;;;;;;;91.93;24.33;;;;;;;1.07;100.00;102967.34;5047144;28;20017;-76
2022/01/15 02:00:18;;;;;;;106.63;25.95;;;;;;;1.09;100.00;102968.19;5028399;28;20110;-76
2022/01/15 02:02:47;;;;;;;96.22;25.13;;;;;;;1.05;100.00;102965.72;5043053;28;20398;-75
2022/01/15 02:05:13;;;;;;;102.32;27.20;;;;;;;1.07;100.00;102958.84;5046429;28;20532;-75
2022/01/15 02:07:40;;;;;;;90.78;26.15;;;;;;;0.95;100.00;102960.84;5045803;28;20120;-75
2022/01/15 02:10:08;;;;;;;97.68;24.52;;;;;;;0.91;100.00;102958.44;5050097;28;20071;-76
2022/01/15 02:12:34;;;;;;;93.45;26.10;;;;;;;0.95;100.00;102971.06;5029767;28;20024;-76
2022/01/15 02:15:12;;;;;;;108.45;26.70;;;;;;;1.01;100.00;102969.25;5045997;28;20491;-75
2022/01/15 02:17:38;;;;;;;90.63;25.08;;;;;;;0.99;100.00;102955.69;5020032;28;20094;-76
2022/01/15 02:25:46;;;;;;;113.63;28.38;;;;;;;0.89;100.00;102952.53;5050042;28;20033;-76
2022/01/15 02:28:12;;;;;;;107.85;25.52;;;;;;;0.91;100.00;102941.38;5037926;28;20052;-76
2022/01/15 02:30:38;;;;;;;102.15;25.77;;;;;;;0.92;100.00;102940.53;5053967;28;20059;-76
2022/01/15 02:33:05;;;;;;;97.80;24.27;;;;;;;0.96;100.00;102931.88;5026599;28;20032;-75
2022/01/15 02:35:30;;;;;;;92.63;23.00;;;;;;;0.89;100.00;102929.53;5048562;28;20044;-76
2022/01/15 02:38:07;;;;;;;83.68;22.17;;;;;;;0.87;100.00;102936.41;5052932;28;20045;-76
2022/01/15 02:40:37;;;;;;;79.28;21.30;;;;;;;0.94;100.00;102925.97;5032132;28;20037;-76
2022/01/15 02:43:09;;;;;;;82.43;23.05;;;;;;;1.00;100.00;102932.66;5047920;28;20029;-76
2022/01/15 02:45:36;;;;;;;71.55;21.05;;;;;;;0.93;100.00;102926.03;5039794;28;20537;-76
2022/01/15 02:48:11;;;;;;;63.47;18.98;;;;;;;0.92;100.00;102922.63;5043983;28;20132;-76
2022/01/15 02:50:37;;;;;;;74.28;20.35;;;;;;;0.91;100.00;102930.34;5048460;28;20418;-76
2022/01/15 02:53:03;;;;;;;65.20;18.88;;;;;;;0.87;100.00;102915.97;5036858;28;20067;-76
2022/01/15 02:55:29;;;;;;;74.05;17.33;;;;;;;0.93;100.00;102916.63;5032784;28;20454;-76
2022/01/15 02:57:55;;;;;;;71.95;19.10;;;;;;;0.86;100.00;102915.13;5054671;28;20129;-76
2022/01/15 03:00:23;;;;;;;65.32;17.75;;;;;;;0.83;100.00;102917.78;5051886;28;20095;-76
2022/01/15 03:02:48;;;;;;;69.82;18.40;;;;;;;0.93;100.00;102923.47;5054553;28;20497;-76
2022/01/15 03:05:14;;;;;;;65.82;17.55;;;;;;;0.93;100.00;102916.63;5037137;28;20028;-75
2022/01/15 03:07:39;;;;;;;58.17;16.60;;;;;;;0.82;100.00;102916.09;5052988;28;20390;-76
2022/01/15 03:10:05;;;;;;;54.33;17.05;;;;;;;0.85;100.00;102915.16;5050477;28;20045;-76
2022/01/15 03:12:31;;;;;;;66.45;18.15;;;;;;;0.80;100.00;102911.91;5043496;28;20053;-76
2022/01/15 03:15:01;;;;;;;63.72;18.52;;;;;;;0.80;100.00;102915.28;5047584;28;20611;-76
2022/01/15 03:17:26;;;;;;;67.25;18.80;;;;;;;0.84;100.00;102904.09;5039894;28;20377;-76
2022/01/15 03:19:52;;;;;;;55.20;16.08;;;;;;;0.75;100.00;102906.91;5048421;28;20044;-76
2022/01/15 03:22:17;;;;;;;62.65;17.98;;;;;;;0.76;100.00;102904.31;5035763;28;20127;-75
2022/01/15 03:24:43;;;;;;;51.75;16.55;;;;;;;0.81;100.00;102891.44;5029845;28;20029;-76
2022/01/15 03:27:08;;;;;;;48.15;14.02;;;;;;;0.81;100.00;102896.53;5050722;28;20505;-75
2022/01/15 03:29:34;;;;;;;46.40;13.63;;;;;;;0.74;100.00;102883.09;5029942;28;20123;-75
2022/01/15 03:31:59;;;;;;;40.60;12.38;;;;;;;0.77;100.00;102884.69;5032644;28;20021;-75
2022/01/15 03:34:25;;;;;;;46.10;13.73;;;;;;;0.71;100.00;102887.44;5034286;28;20606;-76
2022/01/15 03:36:51;;;;;;;44.33;14.30;;;;;;;0.70;100.00;102883.22;5042067;28;20765;-75
2022/01/15 03:39:16;;;;;;;41.28;13.52;;;;;;;0.69;100.00;102882.38;5023054;28;20056;-76
2022/01/15 03:41:42;;;;;;;47.38;15.18;;;;;;;0.65;100.00;102873.09;5039071;28;20052;-76
2022/01/15 03:44:07;;;;;;;49.55;14.95;;;;;;;0.63;100.00;102871.50;5050239;28;20070;-76
2022/01/15 03:46:33;;;;;;;47.28;15.70;;;;;;;0.64;100.00;102868.03;5049051;28;20395;-75
2022/01/15 03:48:58;;;;;;;57.15;16.90;;;;;;;0.50;100.00;102866.69;5048217;28;20041;-76
2022/01/15 03:51:24;;;;;;;51.30;16.00;;;;;;;0.54;100.00;102860.63;5050495;28;20037;-76
2022/01/15 03:53:49;;;;;;;49.28;15.25;;;;;;;0.58;100.00;102862.25;5042837;28;20407;-75
2022/01/15 03:56:15;;;;;;;50.53;16.10;;;;;;;0.61;100.00;102861.31;5022367;28;20112;-75
2022/01/15 03:58:40;;;;;;;44.22;15.88;;;;;;;0.65;100.00;102856.97;5048144;28;20039;-75
2022/01/15 04:01:06;;;;;;;54.80;17.15;;;;;;;0.62;100.00;102855.31;5032226;28;20025;-76
2022/01/15 04:03:31;;;;;;;49.28;15.85;;;;;;;0.60;100.00;102846.84;5049939;28;20044;-76
2022/01/15 04:05:57;;;;;;;60.50;19.13;;;;;;;0.53;100.00;102851.31;5030418;28;20491;-75
2022/01/15 04:08:22;;;;;;;64.18;19.85;;;;;;;0.53;100.00;102851.31;5036794;28;20091;-76
2022/01/15 04:10:48;;;;;;;64.03;19.83;;;;;;;0.46;100.00;102841.28;5031306;28;20111;-75
2022/01/15 04:13:15;;;;;;;62.38;18.77;;;;;;;0.48;100.00;102827.59;5020677;28;20283;-75
2022/01/15 04:15:42;;;;;;;68.35;20.55;;;;;;;0.42;100.00;102821.84;5036186;28;20022;-76
2022/01/15 04:18:08;;;;;;;75.47;22.58;;;;;;;0.39;100.00;102828.66;5048001;28;20032;-75
2022/01/15 04:20:33;;;;;;;82.93;22.90;;;;;;;0.24;100.00;102825.69;5036673;28;20495;-75
2022/01/15 04:22:59;;;;;;;93.03;22.33;;;;;;;0.21;100.00;102828.31;5036586;28;20087;-75
2022/01/15 04:25:24;;;;;;;109.65;24.90;;;;;;;0.20;100.00;102822.38;5039713;28;20036;-75
2022/01/15 04:27:50;;;;;;;92.07;24.50;;;;;;;0.22;100.00;102830.00;5048058;28;20426;-75
2022/01/15 04:30:17;;;;;;;102.68;22.88;;;;;;;0.23;100.00;102824.88;5029780;28;20082;-75
2022/01/15 04:32:43;;;;;;;101.63;23.55;;;;;;;0.26;100.00;102829.03;5049696;28;20683;-76
2022/01/15 04:35:09;;;;;;;111.45;24.67;;;;;;;0.30;100.00;102831.50;5050410;28;20024;-75
2022/01/15 04:37:47;;;;;;;89.95;22.10;;;;;;;0.29;100.00;102834.06;5032921;28;20433;-75
2022/01/15 04:40:15;;;;;;;86.30;21.88;;;;;;;0.30;100.00;102821.28;5048160;28;20047;-76
2022/01/15 04:42:41;;;;;;;87.88;22.52;;;;;;;0.22;100.00;102828.28;5031125;28;20266;-75
2022/01/15 04:45:09;;;;;;;110.30;26.38;;;;;;;0.24;100.00;102818.03;5031089;28;20040;-75
2022/01/15 04:47:36;;;;;;;127.88;25.23;;;;;;;0.26;100.00;102817.09;5009850;28;20033;-75
2022/01/15 04:50:05;;;;;;;94.63;26.05;;;;;;;0.22;100.00;102809.59;5037891;28;20032;-76
2022/01/15 04:52:33;;;;;;;98.03;22.67;;;;;;;0.31;100.00;102812.72;5030741;28;20994;-75
2022/01/15 04:54:59;;;;;;;93.40;25.05;;;;;;;0.26;100.00;102809.44;5047585;28;20058;-76
2022/01/15 04:57:25;;;;;;;113.53;26.27;;;;;;;0.26;100.00;102800.97;5048249;28;20478;-76
2022/01/15 04:59:50;;;;;;;93.65;23.08;;;;;;;0.23;100.00;102801.91;5030049;28;20036;-76
2022/01/15 05:02:16;;;;;;;112.72;26.77;;;;;;;0.22;100.00;102800.22;5048787;28;20033;-76
2022/01/15 05:04:41;;;;;;;102.47;23.60;;;;;;;0.28;100.00;102800.03;5051869;28;20041;-76
2022/01/15 05:07:06;;;;;;;84.95;24.25;;;;;;;0.25;100.00;102812.91;5050466;28;20041;-75
2022/01/15 05:09:32;;;;;;;94.63;26.10;;;;;;;0.22;100.00;102804.47;5032858;28;20499;-75
2022/01/15 05:14:26;;;;;;;93.03;23.92;;;;;;;0.34;100.00;102804.16;5027219;28;20029;-76
2022/01/15 05:16:51;;;;;;;118.25;26.25;;;;;;;0.26;100.00;102804.34;5027161;28;20448;-75
2022/01/15 05:19:17;;;;;;;86.25;23.55;;;;;;;0.30;100.00;102798.31;5029690;28;20486;-75
2022/01/15 05:21:42;;;;;;;127.53;27.30;;;;;;;0.34;100.00;102794.78;5031205;28;20033;-76
2022/01/15 05:24:08;;;;;;;116.47;24.25;;;;;;;0.28;100.00;102802.59;5015742;28;20033;-76
2022/01/15 05:26:33;;;;;;;130.00;27.73;;;;;;;0.26;100.00;102804.34;5029702;28;20040;-75
2022/01/15 05:28:59;;;;;;;123.22;22.52;;;;;;;0.32;100.00;102803.34;5063011;28;20122;-76
2022/01/15 05:31:26;;;;;;;91.68;21.30;;;;;;;0.33;100.00;102795.66;5047135;28;20033;-75
2022/01/15 05:33:52;;;;;;;114.93;22.88;;;;;;;0.22;100.00;102792.56;5050356;28;20085;-75
2022/01/15 05:36:17;;;;;;;66.43;19.58;;;;;;;0.25;100.00;102789.09;5053614;28;20082;-74
2022/01/15 05:38:43;;;;;;;72.63;19.70;;;;;;;0.22;100.00;102794.28;5032515;28;20064;-75
2022/01/15 05:41:09;;;;;;;67.50;18.95;;;;;;;0.24;100.00;102792.50;5046966;28;20028;-74
2022/01/15 05:43:34;;;;;;;83.38;18.60;;;;;;;0.29;100.00;102786.41;5027994;28;20522;-74
2022/01/15 05:46:00;;;;;;;110.32;19.75;;;;;;;0.18;100.00;102788.41;5047216;28;20029;-74
2022/01/15 05:48:26;;;;;;;70.28;17.60;;;;;;;0.11;100.00;102797.09;5030044;28;20506;-74
2022/01/15 05:50:51;;;;;;;67.95;16.80;;;;;;;0.14;100.00;102794.47;5031338;28;20044;-74
2022/01/15 05:53:17;;;;;;;65.65;18.02;;;;;;;0.05;100.00;102784.50;5030676;28;20031;-74
2022/01/15 05:55:42;;;;;;;103.90;21.48;;;;;;;0.10;100.00;102783.50;5028005;28;20036;-74
2022/01/15 05:58:07;;;;;;;77.70;20.05;;;;;;;0.14;100.00;102787.66;5044968;28;20407;-74
2022/01/15 06:00:34;;;;;;;82.13;19.88;;;;;;;0.05;100.00;102780.22;5026815;28;20030;-74
2022/01/15 06:03:00;;;;;;;80.57;22.20;;;;;;;0.07;100.00;102782.75;5045772;28;20505;-74
2022/01/15 06:05:25;;;;;;;85.10;20.10;;;;;;;0.17;100.00;102789.28;5027744;28;20064;-74
2022/01/15 06:07:51;;;;;;;101.40;21.95;;;;;;;0.13;100.00;102780.03;5060095;28;20032;-74
2022/01/15 06:10:16;;;;;;;62.15;18.13;;;;;;;0.12;100.00;102776.66;5013872;28;20528;-74
2022/01/15 06:12:44;;;;;;;81.57;20.08;;;;;;;0.15;100.00;102771.47;5043109;28;20033;-74
2022/01/15 06:15:15;;;;;;;83.38;19.95;;;;;;;0.12;100.00;102774.09;5018459;28;20040;-74
2022/01/15 06:17:42;;;;;;;76.40;19.40;;;;;;;0.12;100.00;102769.00;5021726;28;20068;-74
2022/01/15 06:20:09;;;;;;;76.65;19.23;;;;;;;0.28;100.00;102768.59;5061705;28;20024;-75
2022/01/15 06:22:35;;;;;;;82.47;19.73;;;;;;;0.28;100.00;102764.31;5046991;28;20044;-74
2022/01/15 06:25:02;;;;;;;70.68;20.73;;;;;;;0.15;100.00;102766.38;5033595;28;20045;-74
2022/01/15 06:27:29;;;;;;;74.30;17.67;;;;;;;0.21;100.00;102764.53;5049241;28;20041;-74
2022/01/15 06:29:56;;;;;;;97.47;19.13;;;;;;;0.15;100.00;102762.97;5062393;28;20474;-74
2022/01/15 06:32:22;;;;;;;99.85;21.02;;;;;;;0.18;100.00;102761.16;5055898;28;20035;-74
2022/01/15 06:34:48;;;;;;;67.68;18.80;;;;;;;0.18;100.00;102756.06;5044926;28;20450;-74
2022/01/15 06:37:13;;;;;;;68.78;18.52;;;;;;;0.20;100.00;102761.13;5030136;28;20029;-74
2022/01/15 06:39:39;;;;;;;113.78;20.92;;;;;;;0.19;100.00;102757.75;5046251;28;20032;-75
2022/01/15 06:42:04;;;;;;;81.53;21.90;;;;;;;0.33;100.00;102754.00;5029279;28;20037;-74
2022/01/15 06:44:30;;;;;;;93.28;20.83;;;;;;;0.28;100.00;102754.09;5010234;28;20501;-74
2022/01/15 06:46:55;;;;;;;77.40;20.50;;;;;;;0.31;100.00;102756.59;5037786;28;20094;-74
2022/01/15 06:49:21;;;;;;;108.78;21.58;;;;;;;0.25;100.00;102755.94;5032917;28;20025;-74
2022/01/15 06:51:47;;;;;;;139.05;23.58;;;;;;;0.25;100.00;102754.22;5028242;28;20025;-73
2022/01/15 06:54:13;;;;;;;111.07;22.42;;;;;;;0.23;100.00;102755.09;5059074;28;20068;-74
2022/01/15 06:56:39;;;;;;;111.03;24.42;;;;;;;0.21;100.00;102752.63;5048220;28;20037;-74
2022/01/15 06:59:04;;;;;;;106.38;24.50;;;;;;;0.19;100.00;102755.22;5036905;28;20037;-74
2022/01/15 07:01:30;;;;;;;134.80;27.00;;;;;;;0.19;100.00;102764.59;5054041;28;20194;-74
2022/01/15 07:03:55;;;;;;;97.05;26.40;;;;;;;0.15;100.00;102760.41;5026562;28;20029;-74
2022/01/15 07:06:21;;;;;;;91.95;25.65;;;;;;;0.15;100.00;102760.41;5027853;28;20029;-74
2022/01/15 07:08:46;;;;;;;93.45;25.70;;;;;;;0.17;100.00;102751.00;5039938;28;20036;-74
2022/01/15 07:11:12;;;;;;;91.95;28.00;;;;;;;0.10;100.00;102758.00;5048114;28;20037;-74
2022/01/15 07:13:37;;;;;;;89.45;26.38;;;;;;;0.13;100.00;102750.28;5059483;28;20040;-75
2022/01/15 07:16:03;;;;;;;99.45;24.92;;;;;;;0.03;100.00;102745.44;5061154;28;20422;-74
2022/01/15 07:18:28;;;;;;;91.50;26.15;;;;;;;-0.06;100.00;102743.97;5033966;28;20094;-74
2022/01/15 07:20:54;;;;;;;82.72;24.25;;;;;;;0.04;100.00;102745.41;5041335;28;20029;-74
2022/01/15 07:23:19;;;;;;;101.38;26.60;;;;;;;0.04;100.00;102744.56;5035154;28;20044;-74
2022/01/15 07:25:45;;;;;;;76.03;24.63;;;;;;;0.03;100.00;102742.91;5045559;28;20103;-74
2022/01/15 07:28:11;;;;;;;86.78;24.00;;;;;;;0.02;100.00;102744.63;5028778;28;20036;-74
2022/01/15 07:30:36;;;;;;;75.57;25.05;;;;;;;0.03;100.00;102736.06;5027790;28;20087;-74
2022/01/15 07:33:02;;;;;;;72.32;24.40;;;;;;;-0.02;100.00;102743.84;5047272;28;20036;-74
2022/01/15 07:35:27;;;;;;;87.22;28.58;;;;;;;-0.05;100.00;102743.09;5009883;28;20025;-74
2022/01/15 07:37:53;;;;;;;75.70;26.45;;;;;;;0.02;100.00;102749.72;5034079;28;20494;-75
2022/01/15 07:40:19;;;;;;;79.13;27.70;;;;;;;0.05;100.00;102741.13;5044269;28;20175;-73
2022/01/15 07:42:44;;;;;;;80.82;27.55;;;;;;;-0.02;100.00;102740.44;5053205;28;20037;-74
2022/01/15 07:45:13;;;;;;;80.72;26.90;;;;;;;-0.03;100.00;102746.44;5049540;28;20052;-75
2022/01/15 07:47:39;;;;;;;72.53;27.42;;;;;;;-0.10;100.00;102740.66;5046887;28;20029;-75
2022/01/15 07:50:08;;;;;;;81.97;29.45;;;;;;;-0.08;100.00;102745.72;5050195;28;20300;-75
2022/01/15 07:52:34;;;;;;;80.85;29.38;;;;;;;-0.08;100.00;102738.88;5037847;28;20048;-75
2022/01/15 07:55:00;;;;;;;87.53;33.03;;;;;;;-0.10;100.00;102742.38;5030961;28;20037;-75
2022/01/15 07:57:27;;;;;;;74.78;27.33;;;;;;;-0.17;100.00;102745.94;5036584;28;20603;-75
2022/01/15 07:59:53;;;;;;;73.03;27.38;;;;;;;-0.10;100.00;102740.66;5011707;28;20047;-74
2022/01/15 08:02:19;;;;;;;84.65;30.15;;;;;;;0.02;100.00;102742.06;5009079;28;20057;-74
2022/01/15 08:04:44;;;;;;;76.75;29.23;;;;;;;-0.07;100.00;102734.66;5047952;28;20028;-74
2022/01/15 08:07:10;;;;;;;74.93;27.42;;;;;;;-0.09;100.00;102736.41;5047797;28;20486;-75
2022/01/15 08:09:36;;;;;;;74.20;28.63;;;;;;;-0.04;100.00;102727.75;5046768;28;20055;-75
2022/01/15 08:12:03;;;;;;;83.93;28.85;;;;;;;-0.08;100.00;102722.75;5028596;28;20090;-75
2022/01/15 08:14:29;;;;;;;67.20;27.02;;;;;;;-0.04;100.00;102725.22;5011922;28;20037;-74
2022/01/15 08:16:54;;;;;;;75.28;28.15;;;;;;;0.01;100.00;102724.25;5029870;28;20399;-74
2022/01/15 08:19:20;;;;;;;81.38;27.73;;;;;;;0.04;100.00;102722.44;5031518;28;20036;-74
2022/01/15 08:21:45;;;;;;;79.65;29.58;;;;;;;0.00;100.00;102713.22;5029940;28;20029;-74
2022/01/15 08:24:10;;;;;;;71.78;28.05;;;;;;;0.05;100.00;102713.91;5029135;28;20029;-76
2022/01/15 08:26:36;;;;;;;80.43;28.25;;;;;;;-0.01;100.00;102708.97;5034380;28;20751;-77
2022/01/15 08:29:03;;;;;;;72.88;27.75;;;;;;;-0.01;100.00;102722.56;5056422;28;20116;-74
2022/01/15 08:31:28;;;;;;;77.40;27.20;;;;;;;0.07;100.00;102713.88;5031071;28;20353;-74
2022/01/15 08:33:54;;;;;;;71.88;26.67;;;;;;;-0.03;100.00;102710.72;5035103;28;20041;-74
2022/01/15 08:36:20;;;;;;;78.80;28.25;;;;;;;0.05;100.00;102713.91;5047775;28;20059;-74
2022/01/15 08:38:46;;;;;;;71.60;26.83;;;;;;;0.10;100.00;102721.44;5029366;28;20083;-74
2022/01/15 08:41:13;;;;;;;74.28;26.77;;;;;;;0.16;100.00;102714.44;5044644;28;20083;-74
2022/01/15 08:43:39;;;;;;;71.70;25.85;;;;;;;0.04;100.00;102716.50;5030467;28;20043;-75
2022/01/15 08:46:04;;;;;;;67.72;26.88;;;;;;;0.11;100.00;102716.28;5029825;28;20043;-74
2022/01/15 08:48:30;;;;;;;73.90;26.67;;;;;;;0.16;100.00;102723.81;5045838;28;20040;-74
2022/01/15 08:50:55;;;;;;;68.15;26.38;;;;;;;0.07;100.00;102714.69;5045784;28;20036;-74
2022/01/15 08:53:21;;;;;;;73.97;26.40;;;;;;;0.06;100.00;102717.28;5033338;28;20040;-75
2022/01/15 08:55:48;;;;;;;68.00;26.02;;;;;;;0.13;100.00;102721.34;5032269;28;20467;-74
2022/01/15 08:58:13;;;;;;;74.45;26.33;;;;;;;0.13;100.00;102719.66;5037611;28;20088;-74
2022/01/15 09:00:39;;;;;;;77.43;27.17;;;;;;;0.16;100.00;102717.00;5031008;28;20490;-74
2022/01/15 09:03:09;;;;;;;70.55;27.17;;;;;;;0.19;100.00;102721.19;5048510;28;20028;-74
2022/01/15 09:05:36;;;;;;;76.40;27.65;;;;;;;0.16;100.00;102718.72;5028476;28;20075;-75
2022/01/15 09:08:03;;;;;;;75.82;28.05;;;;;;;0.18;100.00;102720.34;5031271;28;20545;-74
2022/01/15 09:10:29;;;;;;;78.50;28.17;;;;;;;0.17;100.00;102718.69;5051473;28;20044;-74
2022/01/15 09:12:54;;;;;;;70.47;27.58;;;;;;;0.27;100.00;102726.94;5050005;28;20041;-74
2022/01/15 09:15:20;;;;;;;70.78;28.52;;;;;;;0.28;100.00;102715.00;5015673;28;20035;-74
2022/01/15 09:17:45;;;;;;;67.15;23.98;;;;;;;0.30;100.00;102713.22;5023903;28;20108;-74
2022/01/15 09:20:11;;;;;;;72.18;25.13;;;;;;;0.29;100.00;102709.03;5048660;28;20025;-74
2022/01/15 09:22:37;;;;;;;73.10;26.70;;;;;;;0.30;100.00;102713.22;5031512;28;20127;-74
2022/01/15 09:25:03;;;;;;;81.20;27.40;;;;;;;0.22;100.00;102710.91;5028914;28;20045;-73
2022/01/15 09:30:14;;;;;;;70.05;25.15;;;;;;;0.21;100.00;102710.94;5045770;28;20037;-74
2022/01/15 09:32:40;;;;;;;75.93;28.30;;;;;;;0.35;100.00;102703.75;5029716;28;20037;-74
2022/01/15 09:35:06;;;;;;;85.65;31.83;;;;;;;0.38;100.00;102704.50;5029999;28;20122;-74
2022/01/15 09:37:32;;;;;;;65.78;26.30;;;;;;;0.44;100.00;102695.00;5043973;28;20063;-74
2022/01/15 09:39:58;;;;;;;68.95;25.30;;;;;;;0.40;100.00;102696.78;5046604;28;20041;-74
2022/01/15 09:42:24;;;;;;;72.88;26.95;;;;;;;0.39;100.00;102688.28;5031119;28;20043;-74
2022/01/15 09:44:51;;;;;;;63.90;25.83;;;;;;;0.51;100.00;102688.81;5027585;28;20051;-74
2022/01/15 09:47:17;;;;;;;63.45;25.45;;;;;;;0.47;100.00;102682.13;5030821;28;20537;-74
2022/01/15 09:49:44;;;;;;;67.25;25.25;;;;;;;0.53;100.00;102687.91;5036909;28;20025;-74
2022/01/15 09:52:12;;;;;;;68.90;26.55;;;;;;;0.58;100.00;102690.31;5026536;28;20456;-74
2022/01/15 09:54:39;;;;;;;63.60;25.15;;;;;;;0.55;100.00;102681.03;5057578;28;20455;-74
2022/01/15 09:57:04;;;;;;;66.07;25.60;;;;;;;0.55;100.00;102677.66;5045388;28;20029;-74
2022/01/15 09:59:30;;;;;;;68.40;26.27;;;;;;;0.54;100.00;102678.53;5048129;28;20490;-75
2022/01/15 10:01:57;;;;;;;73.35;26.85;;;;;;;0.53;100.00;102675.13;5031208;28;20025;-74
2022/01/15 10:04:23;;;;;;;68.53;24.13;;;;;;;0.58;100.00;102670.75;5027236;28;20076;-74
2022/01/15 10:07:12;;;;;;;71.30;25.52;;;;;;;0.55;100.00;102664.88;5032254;28;20356;-74
2022/01/15 10:09:38;;;;;;;72.40;25.30;;;;;;;0.57;100.00;102673.34;5023690;28;20043;-73
2022/01/15 10:12:05;;;;;;;64.38;26.70;;;;;;;0.61;100.00;102664.69;5033307;28;20033;-74
2022/01/15 10:14:37;;;;;;;65.15;24.73;;;;;;;0.71;100.00;102652.47;5018018;28;20037;-74
2022/01/15 10:17:19;;;;;;;61.42;23.55;;;;;;;0.72;100.00;102656.72;5033083;28;20039;-74
2022/01/15 10:19:45;;;;;;;59.58;23.20;;;;;;;0.71;100.00;102653.31;5052653;28;20391;-74
2022/01/15 10:22:14;;;;;;;62.22;22.90;;;;;;;0.76;100.00;102656.56;5056891;28;20120;-74
2022/01/15 10:24:42;;;;;;;64.05;22.55;;;;;;;0.69;100.00;102657.63;5035585;28;20649;-74
2022/01/15 10:27:21;;;;;;;63.05;23.55;;;;;;;0.77;100.00;102659.94;5036427;28;20032;-74
2022/01/15 10:29:59;;;;;;;60.22;23.05;;;;;;;0.71;100.00;102655.03;5027449;28;20041;-74
2022/01/15 10:32:27;;;;;;;59.83;22.80;;;;;;;0.82;100.00;102658.09;5039713;28;20041;-74
2022/01/15 10:34:53;;;;;;;63.00;24.30;;;;;;;0.82;100.00;102647.06;5037943;28;20037;-74
2022/01/15 10:37:25;;;;;;;60.45;22.80;;;;;;;0.80;100.00;102651.38;5017192;28;20204;-74
2022/01/15 10:39:58;;;;;;;62.25;23.02;;;;;;;0.80;100.00;102648.81;5029092;28;20556;-74
2022/01/15 10:42:24;;;;;;;55.17;22.15;;;;;;;0.93;100.00;102645.81;5041993;28;20044;-74
2022/01/15 10:44:52;;;;;;;64.28;24.88;;;;;;;0.93;100.00;102650.94;5055545;28;20029;-74
2022/01/15 10:47:20;;;;;;;61.25;25.58;;;;;;;0.99;100.00;102643.97;5026531;28;20048;-74
2022/01/15 10:49:46;;;;;;;54.30;24.05;;;;;;;0.90;100.00;102648.47;5038951;28;20039;-74
2022/01/15 10:52:17;;;;;;;70.03;26.05;;;;;;;0.89;100.00;102644.25;5027672;28;20041;-74
2022/01/15 10:55:12;;;;;;;65.03;23.10;;;;;;;0.95;100.00;102649.16;5040937;28;20482;-74
2022/01/15 10:57:40;;;;;;;73.95;26.48;;;;;;;1.06;100.00;102648.84;5025121;28;20033;-75
2022/01/15 11:00:25;;;;;;;74.72;31.92;;;;;;;1.07;100.00;102649.66;5044104;28;20308;-75
2022/01/15 11:03:00;;;;;;;62.55;24.95;;;;;;;1.10;100.00;102644.47;5039921;28;20063;-75
2022/01/15 11:05:35;;;;;;;57.80;23.35;;;;;;;1.11;100.00;102639.31;5021505;28;20102;-74
2022/01/15 11:08:22;;;;;;;59.33;25.05;;;;;;;1.09;100.00;102640.22;5022839;28;20045;-74
2022/01/15 11:10:55;;;;;;;52.20;21.98;;;;;;;1.09;100.00;102640.22;5052229;28;20116;-74
2022/01/15 11:13:30;;;;;;;63.40;24.05;;;;;;;1.12;100.00;102643.50;5028747;28;20071;-74
2022/01/15 11:16:07;;;;;;;61.13;25.88;;;;;;;1.19;100.00;102646.72;5032654;28;20040;-74
2022/01/15 11:18:36;;;;;;;59.28;25.38;;;;;;;1.23;100.00;102640.63;5020089;28;20111;-74
2022/01/15 11:21:04;;;;;;;58.45;23.70;;;;;;;1.17;100.00;102638.28;5043760;28;20037;-74
2022/01/15 11:23:31;;;;;;;50.70;23.88;;;;;;;1.39;100.00;102637.53;5030817;28;20059;-74
2022/01/15 11:26:01;;;;;;;56.47;23.67;;;;;;;1.34;100.00;102635.16;5045541;28;20449;-74
2022/01/15 11:28:29;;;;;;;51.45;24.13;;;;;;;1.38;100.00;102631.59;5013178;28;20073;-74
2022/01/15 11:31:08;;;;;;;70.10;31.42;;;;;;;1.41;100.00;102630.66;5014048;28;20065;-74
2022/01/15 11:33:40;;;;;;;61.90;26.55;;;;;;;1.36;100.00;102629.09;5022853;28;20040;-74